Time;durP1;ratioP1;P1;durP2;ratioP2;P2;SDS_P1;SDS_P2;PMS_P1;PMS_P2;Temp;Humidity;BMP_temperature;BMP_pressure;BME280_temperature;BME280_humidity;BME280_pressure;Samples;Min_cycle;Max_cycle;Signal;HPM_P1;HPM_P2
2022/02/26 00:00:32;;;;;;;0.57;0.20;;;;;;;;;;5098828;28;20026;-68
2022/02/26 00:02:58;;;;;;;1.60;0.35;;;;;;;;;;5077374;28;20438;-68
2022/02/26 00:05:24;;;;;;;1.65;0.45;;;;;;;;;;5079017;28;20190;-67
2022/02/26 00:07:50;;;;;;;0.10;0.00;;;;;;;;;;5089561;28;20378;-68
2022/02/26 00:10:16;;;;;;;0.10;0.10;;;;;;;;;;5103538;28;20118;-68
2022/02/26 00:12:42;;;;;;;0.45;0.10;;;;;;;;;;5098125;28;20450;-68
2022/02/26 00:15:09;;;;;;;1.73;0.10;;;;;;;;;;5078565;28;20392;-68
2022/02/26 00:17:35;;;;;;;0.95;0.20;;;;;;;;;;5077607;28;20016;-68
2022/02/26 00:20:01;;;;;;;0.57;0.10;;;;;;;;;;5098401;28;20470;-68
2022/02/26 00:22:27;;;;;;;0.05;0.05;;;;;;;;;;5101629;28;20533;-68
2022/02/26 00:24:53;;;;;;;1.23;0.15;;;;;;;;;;5098627;28;20028;-67
2022/02/26 00:27:20;;;;;;;0.20;0.10;;;;;;;;;;5079512;28;20472;-68
2022/02/26 00:29:46;;;;;;;0.00;0.00;;;;;;;;;;5094166;28;20044;-68
2022/02/26 00:32:12;;;;;;;0.20;0.10;;;;;;;;;;5097454;28;20043;-68
2022/02/26 00:34:38;;;;;;;0.57;0.10;;;;;;;;;;5105405;28;20023;-68
2022/02/26 00:37:04;;;;;;;0.90;0.08;;;;;;;;;;5104853;28;20024;-67
2022/02/26 00:39:30;;;;;;;1.83;0.20;;;;;;;;;;5097514;28;20031;-68
2022/02/26 00:41:57;;;;;;;0.32;0.10;;;;;;;;;;5093386;28;20038;-68
2022/02/26 00:44:23;;;;;;;0.05;0.05;;;;;;;;;;5097341;28;20024;-68
2022/02/26 00:46:49;;;;;;;0.10;0.10;;;;;;;;;;5098049;28;20032;-68
2022/02/26 00:52:00;;;;;;;0.00;0.00;;;;;;;;;;5097986;28;20114;-68
2022/02/26 00:54:26;;;;;;;0.25;0.20;;;;;;;;;;5097952;28;20085;-68
2022/02/26 00:56:52;;;;;;;0.10;0.10;;;;;;;;;;5092965;28;20022;-68
2022/02/26 00:59:18;;;;;;;1.00;0.20;;;;;;;;;;5097401;28;20404;-68
2022/02/26 01:01:45;;;;;;;0.05;0.05;;;;;;;;;;5097774;28;20144;-67
2022/02/26 01:04:11;;;;;;;0.65;0.17;;;;;;;;;;5097361;28;20111;-68
2022/02/26 01:06:37;;;;;;;0.30;0.10;;;;;;;;;;5097189;28;20472;-67
2022/02/26 01:09:04;;;;;;;1.55;0.20;;;;;;;;;;5094527;28;20069;-68
2022/02/26 01:11:31;;;;;;;0.00;0.00;;;;;;;;;;5095027;28;20118;-68
2022/02/26 01:13:58;;;;;;;0.00;0.00;;;;;;;;;;5107216;28;20027;-68
2022/02/26 01:16:24;;;;;;;0.00;0.00;;;;;;;;;;5082635;28;20020;-68
2022/02/26 01:18:51;;;;;;;0.85;0.20;;;;;;;;;;5079409;28;20764;-68
2022/02/26 01:21:17;;;;;;;0.82;0.32;;;;;;;;;;5078523;28;20053;-68
2022/02/26 01:23:43;;;;;;;0.40;0.10;;;;;;;;;;5105469;28;20081;-68
2022/02/26 01:26:09;;;;;;;0.40;0.15;;;;;;;;;;5078411;28;20051;-69
2022/02/26 01:28:35;;;;;;;0.38;0.20;;;;;;;;;;5097026;28;20044;-68
2022/02/26 01:31:01;;;;;;;0.40;0.10;;;;;;;;;;5079292;28;20105;-68
2022/02/26 01:33:27;;;;;;;1.08;0.20;;;;;;;;;;5096815;28;20081;-68
2022/02/26 01:35:53;;;;;;;0.82;0.20;;;;;;;;;;5092835;28;20497;-68
2022/02/26 01:38:19;;;;;;;0.75;0.10;;;;;;;;;;5096714;28;20099;-68
2022/02/26 01:40:45;;;;;;;0.00;0.00;;;;;;;;;;5096468;28;20412;-68
2022/02/26 01:43:11;;;;;;;0.22;0.10;;;;;;;;;;5096676;28;20142;-66
2022/02/26 01:45:37;;;;;;;0.10;0.10;;;;;;;;;;5099671;28;20020;-67
2022/02/26 01:48:03;;;;;;;0.70;0.10;;;;;;;;;;5094231;28;20439;-66
2022/02/26 01:50:29;;;;;;;0.20;0.20;;;;;;;;;;5094427;28;20397;-67
2022/02/26 01:52:58;;;;;;;0.20;0.10;;;;;;;;;;5088278;28;20077;-66
2022/02/26 01:55:24;;;;;;;0.13;0.05;;;;;;;;;;5082534;28;20111;-67
2022/02/26 01:57:50;;;;;;;0.43;0.20;;;;;;;;;;5096476;28;20020;-67
2022/02/26 02:00:17;;;;;;;1.38;0.10;;;;;;;;;;5095468;28;20365;-67
2022/02/26 02:02:44;;;;;;;0.00;0.00;;;;;;;;;;5097989;28;20540;-67
2022/02/26 02:05:10;;;;;;;1.52;0.13;;;;;;;;;;5100512;28;20030;-67
2022/02/26 02:07:36;;;;;;;0.10;0.10;;;;;;;;;;5100728;28;20095;-68
2022/02/26 02:10:02;;;;;;;0.00;0.00;;;;;;;;;;5083143;28;20027;-67
2022/02/26 02:12:28;;;;;;;0.35;0.10;;;;;;;;;;5083169;28;20031;-67
2022/02/26 02:14:54;;;;;;;1.88;0.43;;;;;;;;;;5078921;28;20586;-67
2022/02/26 02:17:21;;;;;;;0.10;0.00;;;;;;;;;;5099758;28;20028;-67
2022/02/26 02:19:47;;;;;;;0.32;0.28;;;;;;;;;;5083203;28;20028;-67
2022/02/26 02:22:16;;;;;;;0.75;0.30;;;;;;;;;;5100749;28;20039;-67
2022/02/26 02:24:42;;;;;;;0.10;0.10;;;;;;;;;;5100311;28;20384;-67
2022/02/26 02:27:09;;;;;;;0.50;0.10;;;;;;;;;;5098250;28;20050;-67
2022/02/26 02:29:35;;;;;;;0.10;0.10;;;;;;;;;;5097642;28;20076;-67
2022/02/26 02:32:01;;;;;;;0.15;0.08;;;;;;;;;;5110736;28;20077;-67
2022/02/26 02:34:27;;;;;;;0.15;0.10;;;;;;;;;;5085493;28;20028;-67
2022/02/26 02:36:53;;;;;;;0.35;0.10;;;;;;;;;;5100448;28;20077;-67
2022/02/26 02:39:19;;;;;;;0.40;0.40;;;;;;;;;;5099228;28;20422;-67
2022/02/26 02:41:45;;;;;;;0.10;0.00;;;;;;;;;;5096581;28;20484;-67
2022/02/26 02:44:13;;;;;;;0.63;0.20;;;;;;;;;;5099830;28;20496;-67
2022/02/26 02:46:40;;;;;;;0.22;0.20;;;;;;;;;;5100082;28;20016;-67
2022/02/26 02:49:06;;;;;;;0.03;0.00;;;;;;;;;;5100284;28;20051;-67
2022/02/26 02:51:32;;;;;;;0.28;0.10;;;;;;;;;;5099756;28;20085;-67
2022/02/26 02:53:58;;;;;;;0.30;0.10;;;;;;;;;;5095891;28;20103;-67
2022/02/26 02:56:24;;;;;;;0.25;0.20;;;;;;;;;;5081191;28;20076;-67
2022/02/26 02:58:50;;;;;;;0.73;0.30;;;;;;;;;;5115518;27;20028;-66
2022/02/26 03:01:16;;;;;;;0.28;0.13;;;;;;;;;;5099475;28;20023;-67
2022/02/26 03:03:42;;;;;;;0.00;0.00;;;;;;;;;;5099943;28;20035;-67
2022/02/26 03:06:08;;;;;;;1.85;0.38;;;;;;;;;;5079411;28;20027;-67
2022/02/26 03:08:34;;;;;;;0.17;0.17;;;;;;;;;;5079084;28;20404;-67
2022/02/26 03:11:00;;;;;;;0.28;0.20;;;;;;;;;;5109305;28;20034;-67
2022/02/26 03:13:27;;;;;;;0.73;0.20;;;;;;;;;;5084700;28;20074;-67
2022/02/26 03:15:53;;;;;;;2.78;0.40;;;;;;;;;;5099793;28;20357;-68
2022/02/26 03:18:20;;;;;;;0.50;0.28;;;;;;;;;;5080618;28;20387;-68
2022/02/26 03:20:46;;;;;;;0.17;0.10;;;;;;;;;;5095977;28;20404;-67
2022/02/26 03:23:12;;;;;;;0.28;0.17;;;;;;;;;;5080920;28;20381;-67
2022/02/26 03:25:38;;;;;;;0.20;0.10;;;;;;;;;;5099542;28;20465;-67
2022/02/26 03:28:05;;;;;;;0.08;0.00;;;;;;;;;;5080739;28;20040;-66
2022/02/26 03:30:31;;;;;;;0.20;0.10;;;;;;;;;;5097593;28;20558;-67
2022/02/26 03:32:57;;;;;;;0.10;0.10;;;;;;;;;;5093788;28;20488;-67
2022/02/26 03:35:23;;;;;;;0.50;0.30;;;;;;;;;;5096311;28;20106;-67
2022/02/26 03:37:50;;;;;;;1.02;0.20;;;;;;;;;;5080319;28;20024;-68
2022/02/26 03:40:16;;;;;;;0.15;0.10;;;;;;;;;;5097762;28;20023;-68
2022/02/26 03:42:42;;;;;;;0.50;0.20;;;;;;;;;;5079948;28;20055;-68
2022/02/26 03:45:09;;;;;;;0.55;0.10;;;;;;;;;;5094418;28;20020;-68
2022/02/26 03:47:35;;;;;;;0.10;0.00;;;;;;;;;;5077557;28;20039;-68
2022/02/26 03:50:01;;;;;;;0.50;0.20;;;;;;;;;;5109208;28;20435;-68
2022/02/26 03:52:27;;;;;;;0.30;0.13;;;;;;;;;;5101954;28;20032;-66
2022/02/26 03:54:55;;;;;;;0.20;0.10;;;;;;;;;;5099159;28;20109;-68
2022/02/26 03:57:21;;;;;;;0.43;0.20;;;;;;;;;;5097873;28;20080;-68
2022/02/26 03:59:47;;;;;;;0.17;0.13;;;;;;;;;;5095064;28;20259;-67
2022/02/26 04:02:13;;;;;;;3.35;0.32;;;;;;;;;;5098450;28;20016;-66
2022/02/26 04:04:39;;;;;;;0.47;0.20;;;;;;;;;;5098396;28;20036;-67
2022/02/26 04:07:05;;;;;;;0.98;0.28;;;;;;;;;;5098389;28;20051;-66
2022/02/26 04:09:32;;;;;;;0.38;0.20;;;;;;;;;;5098681;28;20083;-66
2022/02/26 04:11:58;;;;;;;0.52;0.10;;;;;;;;;;5094488;28;20507;-66
2022/02/26 04:14:24;;;;;;;1.35;0.17;;;;;;;;;;5097375;28;20020;-67
2022/02/26 04:16:50;;;;;;;1.05;0.30;;;;;;;;;;5114285;27;20035;-67
2022/02/26 04:19:16;;;;;;;0.73;0.28;;;;;;;;;;5098341;28;20103;-66
2022/02/26 04:21:42;;;;;;;0.20;0.05;;;;;;;;;;5081704;28;20062;-66
2022/02/26 04:24:08;;;;;;;0.00;0.00;;;;;;;;;;5095106;28;20438;-67
2022/02/26 04:26:34;;;;;;;0.63;0.13;;;;;;;;;;5077516;28;20467;-66
2022/02/26 04:29:00;;;;;;;0.25;0.13;;;;;;;;;;5107919;28;20150;-67
2022/02/26 04:31:26;;;;;;;0.32;0.10;;;;;;;;;;5083314;28;20031;-67
2022/02/26 04:33:52;;;;;;;0.25;0.00;;;;;;;;;;5080492;28;20078;-66
2022/02/26 04:36:19;;;;;;;1.35;0.28;;;;;;;;;;5079065;28;20429;-66
2022/02/26 04:38:45;;;;;;;0.20;0.00;;;;;;;;;;5076595;28;20043;-67
2022/02/26 04:41:10;;;;;;;0.43;0.20;;;;;;;;;;5097172;28;20400;-66
2022/02/26 04:43:38;;;;;;;0.03;0.03;;;;;;;;;;5098093;28;20028;-67
2022/02/26 04:46:04;;;;;;;0.10;0.10;;;;;;;;;;5098198;28;20055;-67
2022/02/26 04:48:31;;;;;;;0.00;0.00;;;;;;;;;;5097488;28;20023;-67
2022/02/26 04:50:57;;;;;;;1.55;0.30;;;;;;;;;;5095202;28;20027;-67
2022/02/26 04:53:23;;;;;;;0.40;0.20;;;;;;;;;;5097160;28;20035;-67
2022/02/26 04:55:50;;;;;;;0.50;0.10;;;;;;;;;;5080086;28;20396;-67
2022/02/26 04:58:16;;;;;;;0.65;0.30;;;;;;;;;;5080186;28;20541;-67
2022/02/26 05:00:42;;;;;;;0.05;0.05;;;;;;;;;;5079255;28;20024;-67
2022/02/26 05:03:08;;;;;;;0.10;0.10;;;;;;;;;;5077254;28;20024;-67
2022/02/26 05:05:34;;;;;;;0.20;0.20;;;;;;;;;;5095284;28;20496;-67
2022/02/26 05:08:00;;;;;;;0.32;0.00;;;;;;;;;;5107786;28;20031;-67
2022/02/26 05:10:26;;;;;;;0.30;0.17;;;;;;;;;;5101141;28;20020;-67
2022/02/26 05:12:52;;;;;;;1.55;0.30;;;;;;;;;;5096929;28;20040;-67
2022/02/26 05:15:19;;;;;;;0.00;0.00;;;;;;;;;;5096176;28;20019;-67
2022/02/26 05:17:45;;;;;;;0.13;0.13;;;;;;;;;;5093923;28;20031;-67
2022/02/26 05:20:12;;;;;;;0.10;0.10;;;;;;;;;;5096573;28;20020;-67
2022/02/26 05:22:39;;;;;;;0.30;0.20;;;;;;;;;;5097142;28;20103;-67
2022/02/26 05:25:06;;;;;;;0.60;0.10;;;;;;;;;;5097325;28;20468;-67
2022/02/26 05:27:32;;;;;;;0.22;0.10;;;;;;;;;;5097406;28;20023;-67
2022/02/26 05:29:58;;;;;;;0.20;0.10;;;;;;;;;;5093296;28;20509;-67
2022/02/26 05:32:24;;;;;;;1.10;0.20;;;;;;;;;;5090220;28;20031;-67
2022/02/26 05:34:51;;;;;;;0.30;0.05;;;;;;;;;;5096893;28;20028;-67
2022/02/26 05:37:17;;;;;;;0.77;0.20;;;;;;;;;;5096943;28;20027;-67
2022/02/26 05:39:43;;;;;;;0.57;0.20;;;;;;;;;;5078871;28;20465;-67
2022/02/26 05:42:09;;;;;;;0.47;0.20;;;;;;;;;;5092562;28;20078;-67
2022/02/26 05:44:35;;;;;;;1.27;0.30;;;;;;;;;;5090475;28;20019;-67
2022/02/26 05:47:01;;;;;;;1.52;0.47;;;;;;;;;;5107565;28;20155;-68
2022/02/26 05:49:27;;;;;;;0.40;0.20;;;;;;;;;;5101599;28;20026;-67
2022/02/26 05:51:53;;;;;;;0.30;0.20;;;;;;;;;;5096971;28;20428;-67
2022/02/26 05:54:19;;;;;;;0.60;0.22;;;;;;;;;;5095219;28;20020;-67
2022/02/26 05:56:45;;;;;;;0.73;0.30;;;;;;;;;;5097876;28;20120;-68
2022/02/26 05:59:11;;;;;;;0.25;0.20;;;;;;;;;;5096324;28;20102;-67
2022/02/26 06:01:37;;;;;;;0.25;0.05;;;;;;;;;;5096629;28;20112;-67
2022/02/26 06:04:03;;;;;;;0.50;0.20;;;;;;;;;;5096604;28;20077;-67
2022/02/26 06:06:29;;;;;;;0.10;0.10;;;;;;;;;;5096667;28;20396;-67
2022/02/26 06:08:55;;;;;;;0.88;0.20;;;;;;;;;;5092105;28;20035;-67
2022/02/26 06:11:21;;;;;;;0.13;0.10;;;;;;;;;;5107145;28;20086;-66
2022/02/26 06:13:47;;;;;;;0.45;0.20;;;;;;;;;;5097103;28;20024;-65
2022/02/26 06:16:14;;;;;;;0.65;0.10;;;;;;;;;;5081578;28;20162;-64
2022/02/26 06:18:40;;;;;;;0.60;0.10;;;;;;;;;;5085239;28;20028;-66
2022/02/26 06:21:06;;;;;;;2.13;0.30;;;;;;;;;;5090195;28;20035;-65
2022/02/26 06:23:32;;;;;;;1.33;0.28;;;;;;;;;;5093757;28;20113;-68
2022/02/26 06:25:58;;;;;;;0.65;0.20;;;;;;;;;;5096963;28;20029;-66
2022/02/26 06:28:24;;;;;;;0.93;0.20;;;;;;;;;;5096720;28;20071;-67
2022/02/26 06:30:50;;;;;;;0.90;0.22;;;;;;;;;;5096370;28;20028;-66
2022/02/26 06:33:16;;;;;;;0.60;0.13;;;;;;;;;;5094741;28;20044;-66
2022/02/26 06:35:42;;;;;;;0.52;0.10;;;;;;;;;;5093855;28;20035;-65
2022/02/26 06:38:08;;;;;;;0.20;0.20;;;;;;;;;;5095908;28;20032;-67
2022/02/26 06:40:34;;;;;;;0.52;0.20;;;;;;;;;;5095063;28;20477;-65
2022/02/26 06:43:00;;;;;;;0.40;0.20;;;;;;;;;;5096423;28;20034;-66
2022/02/26 06:45:26;;;;;;;0.70;0.30;;;;;;;;;;5096262;28;20098;-65
2022/02/26 06:47:52;;;;;;;1.48;0.52;;;;;;;;;;5102426;28;20547;-65
2022/02/26 06:50:18;;;;;;;0.63;0.50;;;;;;;;;;5099304;28;20067;-66
2022/02/26 06:52:44;;;;;;;0.45;0.30;;;;;;;;;;5100132;28;20036;-65
2022/02/26 06:55:10;;;;;;;0.95;0.30;;;;;;;;;;5099888;28;20031;-67
2022/02/26 06:57:36;;;;;;;1.00;0.50;;;;;;;;;;5100284;28;20125;-66
2022/02/26 07:00:05;;;;;;;0.55;0.40;;;;;;;;;;5094397;28;20525;-67
2022/02/26 07:02:31;;;;;;;1.33;0.30;;;;;;;;;;5079997;28;20028;-67
2022/02/26 07:04:57;;;;;;;0.22;0.10;;;;;;;;;;5109647;28;20019;-66
2022/02/26 07:07:23;;;;;;;0.70;0.25;;;;;;;;;;5085635;28;20464;-67
2022/02/26 07:09:49;;;;;;;0.75;0.30;;;;;;;;;;5082363;28;20028;-66
2022/02/26 07:12:19;;;;;;;0.63;0.20;;;;;;;;;;5079853;28;20158;-66
2022/02/26 07:14:46;;;;;;;0.10;0.10;;;;;;;;;;5096303;28;20110;-68
2022/02/26 07:17:12;;;;;;;0.30;0.15;;;;;;;;;;5099348;28;20043;-68
2022/02/26 07:19:38;;;;;;;0.75;0.20;;;;;;;;;;5074708;27;20497;-68
2022/02/26 07:22:04;;;;;;;0.10;0.10;;;;;;;;;;5108030;27;20032;-68
2022/02/26 07:24:30;;;;;;;0.50;0.20;;;;;;;;;;5094814;28;20024;-68
2022/02/26 07:26:56;;;;;;;0.13;0.13;;;;;;;;;;5090532;28;20096;-67
2022/02/26 07:29:22;;;;;;;1.48;0.13;;;;;;;;;;5074665;28;20113;-67
2022/02/26 07:31:48;;;;;;;0.40;0.22;;;;;;;;;;5076251;28;20089;-68
2022/02/26 07:34:14;;;;;;;0.25;0.20;;;;;;;;;;5076312;28;20491;-68
2022/02/26 07:36:40;;;;;;;0.22;0.17;;;;;;;;;;5094237;28;20078;-68
2022/02/26 07:39:07;;;;;;;0.38;0.08;;;;;;;;;;5093058;28;20020;-68
2022/02/26 07:41:33;;;;;;;0.35;0.20;;;;;;;;;;5097070;28;20021;-68
2022/02/26 07:43:59;;;;;;;0.20;0.20;;;;;;;;;;5102992;27;20027;-69
2022/02/26 07:46:25;;;;;;;0.00;0.00;;;;;;;;;;5096585;28;20461;-70
2022/02/26 07:48:51;;;;;;;0.40;0.10;;;;;;;;;;5093468;28;20032;-70
2022/02/26 07:51:17;;;;;;;0.82;0.10;;;;;;;;;;5101090;28;20028;-70
2022/02/26 07:53:44;;;;;;;0.20;0.10;;;;;;;;;;5099348;28;20074;-70
2022/02/26 07:56:10;;;;;;;0.00;0.00;;;;;;;;;;5091605;28;20069;-69
2022/02/26 07:58:36;;;;;;;0.15;0.15;;;;;;;;;;5097575;28;20032;-68
2022/02/26 08:01:03;;;;;;;0.30;0.20;;;;;;;;;;5098703;28;20040;-69
2022/02/26 08:03:29;;;;;;;0.63;0.10;;;;;;;;;;5092231;28;20020;-69
2022/02/26 08:05:55;;;;;;;0.00;0.00;;;;;;;;;;5093717;28;20031;-69
2022/02/26 08:08:21;;;;;;;0.10;0.10;;;;;;;;;;5109071;28;20020;-67
2022/02/26 08:10:47;;;;;;;0.47;0.35;;;;;;;;;;5097983;28;20028;-66
2022/02/26 08:13:13;;;;;;;0.20;0.10;;;;;;;;;;5098066;28;20028;-68
2022/02/26 08:15:42;;;;;;;0.40;0.20;;;;;;;;;;5098176;28;20031;-67
2022/02/26 08:18:08;;;;;;;;;;;;;;;;;;5096005;28;20023;-67
2022/02/26 08:20:34;;;;;;;0.17;0.10;;;;;;;;;;5095268;28;19904;-67
2022/02/26 08:23:00;;;;;;;0.00;0.00;;;;;;;;;;5097828;28;20052;-68
2022/02/26 08:25:26;;;;;;;0.00;0.00;;;;;;;;;;5097024;28;20024;-68
2022/02/26 08:27:52;;;;;;;0.20;0.10;;;;;;;;;;5097686;28;20028;-67
2022/02/26 08:30:18;;;;;;;0.10;0.10;;;;;;;;;;5096228;28;20038;-68
2022/02/26 08:32:45;;;;;;;0.43;0.10;;;;;;;;;;5093748;28;20503;-67
2022/02/26 08:35:11;;;;;;;0.00;0.00;;;;;;;;;;5097433;28;20027;-67
2022/02/26 08:37:38;;;;;;;0.20;0.13;;;;;;;;;;5097990;28;20067;-67
2022/02/26 08:40:05;;;;;;;0.22;0.10;;;;;;;;;;5096980;28;20388;-68
2022/02/26 08:42:31;;;;;;;0.08;0.00;;;;;;;;;;5096693;28;20393;-67
2022/02/26 08:44:57;;;;;;;1.08;0.20;;;;;;;;;;5093493;28;20544;-67
2022/02/26 08:47:23;;;;;;;0.30;0.20;;;;;;;;;;5097245;28;20064;-67
2022/02/26 08:49:49;;;;;;;0.05;0.05;;;;;;;;;;5079587;28;20384;-68
2022/02/26 08:52:15;;;;;;;0.15;0.10;;;;;;;;;;5097719;28;20028;-67
2022/02/26 08:54:41;;;;;;;0.10;0.10;;;;;;;;;;5096185;28;20024;-67
2022/02/26 08:57:08;;;;;;;0.77;0.10;;;;;;;;;;5094953;28;20051;-67
2022/02/26 08:59:34;;;;;;;0.60;0.08;;;;;;;;;;5095193;28;20020;-67
2022/02/26 09:02:00;;;;;;;0.10;0.10;;;;;;;;;;5087854;28;20092;-67
2022/02/26 09:04:26;;;;;;;0.20;0.20;;;;;;;;;;5100009;28;20023;-67
2022/02/26 09:06:52;;;;;;;0.20;0.10;;;;;;;;;;5097077;28;20028;-67
2022/02/26 09:09:18;;;;;;;0.20;0.10;;;;;;;;;;5095769;28;20015;-67
2022/02/26 09:11:44;;;;;;;0.05;0.05;;;;;;;;;;5093866;28;20028;-67
2022/02/26 09:14:10;;;;;;;0.00;0.00;;;;;;;;;;5097141;28;20034;-67
2022/02/26 09:16:36;;;;;;;0.10;0.10;;;;;;;;;;5097377;28;20085;-67
2022/02/26 09:19:03;;;;;;;0.03;0.00;;;;;;;;;;5097162;28;20028;-67
2022/02/26 09:21:29;;;;;;;0.10;0.10;;;;;;;;;;5097303;28;20028;-67
2022/02/26 09:23:55;;;;;;;0.00;0.00;;;;;;;;;;5074938;28;20019;-67
2022/02/26 09:26:21;;;;;;;0.30;0.10;;;;;;;;;;5107505;28;20345;-67
2022/02/26 09:28:47;;;;;;;0.00;0.00;;;;;;;;;;5079424;28;20131;-67
2022/02/26 09:31:14;;;;;;;0.13;0.10;;;;;;;;;;5097006;28;20035;-67
2022/02/26 09:33:40;;;;;;;0.35;0.05;;;;;;;;;;5097173;28;20024;-66
2022/02/26 09:36:07;;;;;;;0.00;0.00;;;;;;;;;;5093729;28;20020;-67
2022/02/26 09:38:33;;;;;;;0.10;0.10;;;;;;;;;;5094040;28;20060;-66
2022/02/26 09:41:00;;;;;;;0.05;0.00;;;;;;;;;;5087214;28;20016;-67
2022/02/26 09:43:26;;;;;;;0.90;0.10;;;;;;;;;;5082092;28;20148;-68
2022/02/26 09:45:53;;;;;;;0.10;0.05;;;;;;;;;;5095774;28;20020;-67
2022/02/26 09:48:20;;;;;;;0.20;0.10;;;;;;;;;;5078358;28;20027;-68
2022/02/26 09:50:46;;;;;;;1.08;0.50;;;;;;;;;;5108461;28;20518;-68
2022/02/26 09:53:13;;;;;;;0.10;0.10;;;;;;;;;;5086704;28;20044;-68
2022/02/26 09:55:40;;;;;;;0.00;0.00;;;;;;;;;;5097872;28;20381;-68
2022/02/26 09:58:06;;;;;;;0.20;0.00;;;;;;;;;;5095751;28;20027;-67
2022/02/26 10:00:32;;;;;;;0.22;0.10;;;;;;;;;;5095498;28;20032;-68
2022/02/26 10:02:58;;;;;;;0.05;0.05;;;;;;;;;;5074343;28;20499;-66
2022/02/26 10:05:24;;;;;;;0.00;0.00;;;;;;;;;;5076506;28;20495;-66
2022/02/26 10:07:50;;;;;;;0.08;0.08;;;;;;;;;;5095623;28;20362;-65
2022/02/26 10:10:29;;;;;;;0.47;0.10;;;;;;;;;;5094665;28;20038;-64
2022/02/26 10:12:57;;;;;;;0.20;0.10;;;;;;;;;;5078890;28;20448;-66
2022/02/26 10:15:27;;;;;;;0.10;0.10;;;;;;;;;;5093075;28;20051;-64
2022/02/26 10:18:02;;;;;;;0.63;0.20;;;;;;;;;;5090781;28;20050;-65
2022/02/26 10:20:29;;;;;;;0.00;0.00;;;;;;;;;;5107023;28;20463;-67
2022/02/26 10:22:55;;;;;;;0.10;0.10;;;;;;;;;;5107191;28;20172;-67
2022/02/26 10:25:29;;;;;;;0.10;0.10;;;;;;;;;;5109183;28;20028;-69
2022/02/26 10:27:56;;;;;;;0.55;0.20;;;;;;;;;;5107080;28;20027;-66
2022/02/26 10:30:22;;;;;;;0.20;0.20;;;;;;;;;;5098118;28;20484;-66
2022/02/26 10:33:04;;;;;;;0.70;0.20;;;;;;;;;;5095589;28;20036;-67
2022/02/26 10:35:37;;;;;;;1.27;0.40;;;;;;;;;;5105276;27;20119;-68
2022/02/26 10:38:13;;;;;;;0.10;0.10;;;;;;;;;;5098433;28;20107;-68
2022/02/26 10:40:50;;;;;;;1.30;0.10;;;;;;;;;;5098085;28;20020;-69
2022/02/26 10:43:36;;;;;;;0.10;0.10;;;;;;;;;;5098116;28;20476;-67
2022/02/26 10:46:17;;;;;;;0.08;0.00;;;;;;;;;;5097974;28;20016;-68
2022/02/26 10:48:43;;;;;;;0.00;0.00;;;;;;;;;;5081594;28;20395;-68
2022/02/26 10:51:16;;;;;;;0.45;0.15;;;;;;;;;;5074548;28;20430;-68
2022/02/26 10:53:43;;;;;;;0.68;0.20;;;;;;;;;;5109836;28;20032;-64
2022/02/26 10:56:10;;;;;;;0.10;0.10;;;;;;;;;;5096268;28;20031;-63
2022/02/26 10:58:36;;;;;;;0.00;0.00;;;;;;;;;;5103970;28;20414;-68
2022/02/26 11:01:02;;;;;;;0.20;0.20;;;;;;;;;;5104012;28;20032;-63
2022/02/26 11:03:28;;;;;;;0.10;0.10;;;;;;;;;;5096601;28;20068;-67
2022/02/26 11:05:55;;;;;;;0.10;0.10;;;;;;;;;;5107411;28;20480;-70
2022/02/26 11:08:22;;;;;;;0.47;0.10;;;;;;;;;;5108132;28;20066;-65
2022/02/26 11:10:51;;;;;;;0.20;0.03;;;;;;;;;;5086918;28;20047;-65
2022/02/26 11:13:18;;;;;;;0.20;0.00;;;;;;;;;;5096246;28;20059;-65
2022/02/26 11:15:45;;;;;;;0.20;0.10;;;;;;;;;;5094127;28;20019;-65
2022/02/26 11:18:15;;;;;;;0.10;0.10;;;;;;;;;;5106110;28;20031;-66
2022/02/26 11:20:41;;;;;;;0.10;0.10;;;;;;;;;;5104955;28;20023;-66
2022/02/26 11:23:08;;;;;;;0.10;0.10;;;;;;;;;;5105201;28;20024;-63
2022/02/26 11:25:34;;;;;;;1.55;0.13;;;;;;;;;;5080660;28;20024;-65
2022/02/26 11:28:00;;;;;;;0.10;0.10;;;;;;;;;;5096585;28;20539;-65
2022/02/26 11:30:28;;;;;;;0.13;0.10;;;;;;;;;;5105389;28;20106;-65
2022/02/26 11:32:54;;;;;;;0.73;0.20;;;;;;;;;;5106756;28;20500;-64
2022/02/26 11:35:22;;;;;;;0.00;0.00;;;;;;;;;;5109707;28;20092;-64
2022/02/26 11:37:52;;;;;;;0.10;0.10;;;;;;;;;;5108327;28;20069;-65
2022/02/26 11:40:18;;;;;;;0.00;0.00;;;;;;;;;;5108945;28;20510;-65
2022/02/26 11:42:45;;;;;;;0.00;0.00;;;;;;;;;;5108101;28;20465;-65
2022/02/26 11:45:18;;;;;;;0.03;0.03;;;;;;;;;;5107883;28;20080;-64
2022/02/26 11:47:51;;;;;;;0.20;0.13;;;;;;;;;;5107345;28;20078;-64
2022/02/26 11:50:21;;;;;;;0.05;0.05;;;;;;;;;;5109351;28;20435;-64
2022/02/26 11:53:02;;;;;;;0.17;0.10;;;;;;;;;;5108447;28;20136;-65
2022/02/26 11:55:28;;;;;;;0.03;0.03;;;;;;;;;;5106610;28;20026;-64
2022/02/26 11:57:56;;;;;;;0.15;0.00;;;;;;;;;;5089881;28;20027;-65
2022/02/26 12:00:22;;;;;;;0.25;0.10;;;;;;;;;;5106461;28;20024;-65
2022/02/26 12:03:06;;;;;;;0.10;0.10;;;;;;;;;;5107805;28;20043;-65
2022/02/26 12:05:32;;;;;;;0.15;0.10;;;;;;;;;;5099364;28;20148;-64
2022/02/26 12:07:58;;;;;;;0.10;0.05;;;;;;;;;;5085586;28;20103;-64
2022/02/26 12:10:27;;;;;;;0.00;0.00;;;;;;;;;;5102721;28;20051;-64
2022/02/26 12:12:54;;;;;;;0.20;0.20;;;;;;;;;;5101820;28;20031;-64
2022/02/26 12:15:22;;;;;;;0.10;0.10;;;;;;;;;;5100147;28;20027;-65
2022/02/26 12:18:12;;;;;;;0.10;0.00;;;;;;;;;;5102678;28;20047;-64
2022/02/26 12:20:39;;;;;;;0.15;0.05;;;;;;;;;;5100861;28;20019;-64
2022/02/26 12:23:15;;;;;;;0.57;0.10;;;;;;;;;;5102498;28;20472;-64
2022/02/26 12:25:41;;;;;;;0.20;0.20;;;;;;;;;;5101270;28;20740;-66
2022/02/26 12:28:11;;;;;;;0.43;0.10;;;;;;;;;;5102116;28;20092;-64
2022/02/26 12:31:01;;;;;;;0.10;0.10;;;;;;;;;;5100757;28;20472;-64
2022/02/26 12:33:27;;;;;;;0.20;0.10;;;;;;;;;;5100054;28;20515;-66
2022/02/26 12:36:07;;;;;;;0.32;0.10;;;;;;;;;;5101226;28;20023;-65
2022/02/26 12:38:33;;;;;;;0.10;0.10;;;;;;;;;;5101603;27;20084;-65
2022/02/26 12:41:01;;;;;;;0.80;0.20;;;;;;;;;;5102776;28;20024;-65
2022/02/26 12:43:30;;;;;;;0.32;0.10;;;;;;;;;;5102085;28;20047;-66
2022/02/26 12:45:57;;;;;;;0.30;0.13;;;;;;;;;;5100091;28;20130;-65
2022/02/26 12:48:24;;;;;;;0.28;0.10;;;;;;;;;;5099604;28;20031;-64
2022/02/26 12:50:50;;;;;;;0.20;0.10;;;;;;;;;;5085454;28;20723;-67
2022/02/26 12:53:20;;;;;;;0.00;0.00;;;;;;;;;;5098955;28;20471;-67
2022/02/26 12:55:46;;;;;;;0.00;0.00;;;;;;;;;;5098762;28;20729;-65
2022/02/26 12:58:12;;;;;;;0.47;0.20;;;;;;;;;;5094629;28;20119;-64
2022/02/26 13:00:38;;;;;;;0.00;0.00;;;;;;;;;;5091476;28;20032;-63
2022/02/26 13:03:09;;;;;;;0.63;0.10;;;;;;;;;;5089038;28;20056;-64
2022/02/26 13:05:35;;;;;;;0.10;0.10;;;;;;;;;;5088490;28;20028;-64
2022/02/26 13:08:02;;;;;;;0.38;0.10;;;;;;;;;;5093447;28;20149;-62
2022/02/26 13:10:29;;;;;;;0.15;0.13;;;;;;;;;;5100353;28;20055;-65
2022/02/26 13:12:55;;;;;;;0.20;0.00;;;;;;;;;;5082502;28;20400;-64
2022/02/26 13:15:21;;;;;;;0.30;0.10;;;;;;;;;;5090598;28;20026;-65
2022/02/26 13:17:50;;;;;;;0.00;0.00;;;;;;;;;;5088932;28;20036;-65
2022/02/26 13:20:23;;;;;;;0.43;0.20;;;;;;;;;;5089688;28;20043;-62
2022/02/26 13:23:15;;;;;;;0.52;0.10;;;;;;;;;;5092310;28;20032;-64
2022/02/26 13:25:43;;;;;;;0.35;0.10;;;;;;;;;;5089402;28;20401;-64
2022/02/26 13:28:10;;;;;;;0.25;0.10;;;;;;;;;;5091772;28;20476;-63
2022/02/26 13:30:36;;;;;;;0.43;0.10;;;;;;;;;;5099483;28;20488;-65
2022/02/26 13:33:04;;;;;;;0.10;0.10;;;;;;;;;;5088617;28;20081;-64
2022/02/26 13:35:31;;;;;;;0.10;0.10;;;;;;;;;;5103235;28;20103;-64
2022/02/26 13:37:58;;;;;;;0.60;0.10;;;;;;;;;;5090508;28;20430;-63
2022/02/26 13:40:24;;;;;;;0.17;0.10;;;;;;;;;;5091252;28;20032;-62
2022/02/26 13:42:54;;;;;;;0.43;0.20;;;;;;;;;;5088755;28;20088;-64
2022/02/26 13:45:21;;;;;;;0.20;0.20;;;;;;;;;;5090052;28;20016;-62
2022/02/26 13:47:49;;;;;;;0.00;0.00;;;;;;;;;;5087981;28;20036;-64
2022/02/26 13:50:15;;;;;;;;;;;;;;;;;;5089237;28;20020;-63
2022/02/26 13:52:42;;;;;;;0.20;0.10;;;;;;;;;;5090379;28;19915;-64
2022/02/26 13:55:10;;;;;;;0.17;0.10;;;;;;;;;;5091471;28;20066;-63
2022/02/26 13:57:38;;;;;;;0.20;0.10;;;;;;;;;;5088331;28;20035;-65
2022/02/26 14:00:04;;;;;;;0.00;0.00;;;;;;;;;;5087068;28;20050;-61
2022/02/26 14:02:30;;;;;;;0.08;0.08;;;;;;;;;;5087027;28;20040;-65
2022/02/26 14:04:57;;;;;;;0.10;0.10;;;;;;;;;;5091172;28;20020;-63
2022/02/26 14:07:36;;;;;;;0.80;0.30;;;;;;;;;;5091047;28;20103;-69
2022/02/26 14:10:04;;;;;;;0.10;0.10;;;;;;;;;;5088886;28;20023;-67
2022/02/26 14:12:30;;;;;;;0.20;0.10;;;;;;;;;;5087899;28;20036;-65
2022/02/26 14:14:57;;;;;;;0.05;0.05;;;;;;;;;;5099734;28;20032;-66
2022/02/26 14:17:26;;;;;;;0.10;0.10;;;;;;;;;;5102151;28;20024;-64
2022/02/26 14:19:56;;;;;;;0.20;0.10;;;;;;;;;;5099777;28;20059;-66
2022/02/26 14:22:25;;;;;;;0.20;0.00;;;;;;;;;;5092327;28;20544;-66
2022/02/26 14:24:51;;;;;;;1.75;0.28;;;;;;;;;;5090153;28;20036;-63
2022/02/26 14:27:22;;;;;;;0.65;0.10;;;;;;;;;;5088882;28;20039;-65
2022/02/26 14:29:48;;;;;;;0.73;0.30;;;;;;;;;;5096860;28;20052;-66
2022/02/26 14:32:17;;;;;;;0.32;0.10;;;;;;;;;;5094852;28;20076;-67
2022/02/26 14:34:43;;;;;;;0.35;0.10;;;;;;;;;;5086256;28;20081;-68
2022/02/26 14:37:09;;;;;;;0.20;0.20;;;;;;;;;;5085061;28;20024;-63
2022/02/26 14:39:36;;;;;;;0.00;0.00;;;;;;;;;;5085410;28;20416;-63
2022/02/26 14:42:02;;;;;;;1.42;0.20;;;;;;;;;;5076975;28;20028;-64
2022/02/26 14:44:32;;;;;;;0.20;0.20;;;;;;;;;;5095803;28;20519;-65